createdAt,value
2023-04-18T00:00:26.212Z,9.300
2023-04-18T00:01:27.127Z,10.30
2023-04-18T00:02:42.665Z,8.800
2023-04-18T00:03:24.355Z,9.399
2023-04-18T00:04:24.205Z,9
2023-04-18T00:05:23.534Z,8.800
2023-04-18T00:06:24.024Z,9.199
2023-04-18T00:07:23.641Z,9
2023-04-18T00:08:23.530Z,9.199
2023-04-18T00:09:23.589Z,10
2023-04-18T00:10:23.817Z,10.10
2023-04-18T00:11:23.571Z,8.899
2023-04-18T00:12:23.488Z,10.69
2023-04-18T00:13:23.791Z,9.600
2023-04-18T00:14:23.667Z,9.800
2023-04-18T00:15:23.686Z,11.5
2023-04-18T00:16:23.770Z,8.899
2023-04-18T00:17:23.544Z,9.100
2023-04-18T00:18:23.966Z,9.699
2023-04-18T00:19:23.744Z,8.600
2023-04-18T00:20:23.877Z,8.399
2023-04-18T00:21:23.795Z,10.5
2023-04-18T00:22:23.186Z,9.899
2023-04-18T00:23:23.506Z,8.899
2023-04-18T00:25:23.744Z,9.199
2023-04-18T00:26:23.617Z,8.399
2023-04-18T00:27:23.462Z,9.5
2023-04-18T00:28:23.319Z,10.19
2023-04-18T00:29:23.520Z,9.600
2023-04-18T00:30:23.821Z,8.699
2023-04-18T00:31:24.164Z,9.899
2023-04-18T00:32:23.342Z,8.699
2023-04-18T00:33:23.333Z,10.5
2023-04-18T00:34:23.180Z,9
2023-04-18T00:35:23.217Z,8.899
2023-04-18T00:36:23.403Z,9.199
2023-04-18T00:37:23.405Z,9.800
2023-04-18T00:38:23.743Z,9
2023-04-18T00:39:23.699Z,8.699
2023-04-18T00:40:23.707Z,8.800
2023-04-18T00:41:23.734Z,9
2023-04-18T00:42:23.843Z,9.800
2023-04-18T00:43:23.902Z,9.199
2023-04-18T00:44:23.336Z,9.699
2023-04-18T00:45:23.741Z,10.19
2023-04-18T00:46:23.713Z,9.399
2023-04-18T00:47:23.632Z,9.300
2023-04-18T00:48:23.954Z,10.19
2023-04-18T00:49:24.291Z,10.60
2023-04-18T00:50:23.770Z,10.30
2023-04-18T00:51:23.786Z,9.5
2023-04-18T00:52:23.283Z,11.60
2023-04-18T00:53:23.859Z,10.60
2023-04-18T00:54:24.020Z,10.69
2023-04-18T00:55:23.476Z,9.199
2023-04-18T00:56:23.841Z,10.69
2023-04-18T00:57:23.702Z,10.89
2023-04-18T00:58:23.918Z,11.10
2023-04-18T00:59:23.880Z,9.899
2023-04-18T01:00:24.805Z,10.10
2023-04-18T01:01:23.991Z,11.39
2023-04-18T01:02:24.140Z,9.199
2023-04-18T01:03:23.679Z,9.899
2023-04-18T01:04:24.077Z,10.39
2023-04-18T01:05:23.386Z,10.60
2023-04-18T01:06:23.793Z,11
2023-04-18T01:07:23.701Z,11.5
2023-04-18T01:08:23.473Z,10.30
2023-04-18T01:09:23.740Z,11.5
2023-04-18T01:10:23.571Z,10.69
2023-04-18T01:11:23.826Z,10.89
2023-04-18T01:13:24.144Z,10.80
2023-04-18T01:14:23.545Z,12.5
2023-04-18T01:15:23.684Z,10.5
2023-04-18T01:16:24.084Z,10.60
2023-04-18T01:17:23.908Z,11.69
2023-04-18T01:18:24.204Z,12.60
2023-04-18T01:19:23.887Z,11
2023-04-18T01:20:24.728Z,10.60
2023-04-18T01:22:23.840Z,11.30
2023-04-18T01:23:24.249Z,11
2023-04-18T01:24:23.535Z,9.800
2023-04-18T01:25:23.821Z,10.30
2023-04-18T01:26:23.908Z,10.39
2023-04-18T01:27:23.578Z,11.80
2023-04-18T01:29:23.442Z,11.5
2023-04-18T01:31:23.799Z,10.80
2023-04-18T01:32:24.343Z,11
2023-04-18T01:33:23.920Z,11.39
2023-04-18T01:34:23.931Z,10
2023-04-18T01:35:24.175Z,11.39
2023-04-18T01:36:24.198Z,10.60
2023-04-18T01:37:23.314Z,11.39
2023-04-18T01:38:23.318Z,9.699
2023-04-18T01:39:23.495Z,11.60
2023-04-18T01:40:23.859Z,10.5
2023-04-18T01:41:23.712Z,11.39
2023-04-18T01:42:23.853Z,11.30
2023-04-18T01:43:23.936Z,10.39
2023-04-18T01:44:24.032Z,9.899
2023-04-18T01:45:24.690Z,12.5
2023-04-18T01:46:23.938Z,11.30
2023-04-18T01:47:23.095Z,10.89
2023-04-18T01:48:23.687Z,10.69
2023-04-18T01:50:23.166Z,11.30
2023-04-18T01:51:23.176Z,12.30
2023-04-18T01:52:23.249Z,11.19
2023-04-18T01:53:23.616Z,11.10
2023-04-18T01:54:23.678Z,11
2023-04-18T01:55:24.360Z,10.89
2023-04-18T01:56:23.694Z,10.69
2023-04-18T01:57:23.998Z,11.60
2023-04-18T01:58:24.101Z,11.10
2023-04-18T01:59:23.781Z,10.39
2023-04-18T02:00:24.709Z,11.19
2023-04-18T02:01:24.126Z,11.60
2023-04-18T02:02:23.598Z,11.10
2023-04-18T02:03:23.996Z,10.80
2023-04-18T02:04:23.683Z,10.5
2023-04-18T02:05:24.050Z,10.60
2023-04-18T02:06:24.231Z,11.5
2023-04-18T02:07:23.565Z,10.80
2023-04-18T02:08:23.545Z,11
2023-04-18T02:09:24.697Z,11.69
2023-04-18T02:10:24.469Z,10
2023-04-18T02:11:23.533Z,11
2023-04-18T02:12:23.564Z,10.19
2023-04-18T02:13:23.651Z,11.69
2023-04-18T02:14:23.656Z,10.69
2023-04-18T02:15:23.769Z,10.89
2023-04-18T02:16:24.093Z,10.69
2023-04-18T02:17:24.110Z,10.89
2023-04-18T02:18:23.555Z,11.5
2023-04-18T02:19:23.760Z,10.10
2023-04-18T02:20:23.797Z,11.30
2023-04-18T02:21:23.711Z,10.19
2023-04-18T02:22:23.620Z,11.30
2023-04-18T02:23:23.516Z,10.30
2023-04-18T02:24:23.501Z,10
2023-04-18T02:25:23.975Z,10.69
2023-04-18T02:26:23.464Z,10
2023-04-18T02:27:23.290Z,9.899
2023-04-18T02:28:23.455Z,10.89
2023-04-18T02:29:23.906Z,10.60
2023-04-18T02:31:23.110Z,10.80
2023-04-18T02:32:23.635Z,11.19
2023-04-18T02:33:23.625Z,10.69
2023-04-18T02:34:23.596Z,10.80
2023-04-18T02:35:23.592Z,10.5
2023-04-18T02:36:23.450Z,10.80
2023-04-18T02:37:23.428Z,11
2023-04-18T02:38:23.555Z,11.80
2023-04-18T02:39:23.815Z,10.69
2023-04-18T02:41:23.623Z,10.80
2023-04-18T02:42:23.158Z,11
2023-04-18T02:43:23.568Z,12.69
2023-04-18T02:44:23.203Z,11.39
2023-04-18T02:45:23.655Z,12.39
2023-04-18T02:46:23.398Z,11
2023-04-18T02:47:23.508Z,11.10
2023-04-18T02:48:23.616Z,10.80
2023-04-18T02:49:24.016Z,11.5
2023-04-18T02:50:23.732Z,12
2023-04-18T02:51:23.258Z,12.10
2023-04-18T02:53:24.222Z,12.60
2023-04-18T02:54:23.680Z,11.39
2023-04-18T02:56:24.049Z,12.5
2023-04-18T02:57:24.037Z,11.80
2023-04-18T02:58:23.841Z,11.60
2023-04-18T02:59:23.986Z,12.10
2023-04-18T03:00:24.893Z,13
2023-04-18T03:02:28.446Z,11.80
2023-04-18T03:03:23.971Z,11.39
2023-04-18T03:04:24.369Z,12.89
2023-04-18T03:05:23.761Z,11
2023-04-18T03:06:23.978Z,12.10
2023-04-18T03:07:24.184Z,11.60
2023-04-18T03:08:23.557Z,12
2023-04-18T03:09:24.116Z,11.69
2023-04-18T03:10:23.697Z,11.39
2023-04-18T03:11:24.253Z,11.60
2023-04-18T03:12:23.581Z,12.69
2023-04-18T03:13:23.810Z,10.60
2023-04-18T03:14:23.431Z,11.39
2023-04-18T03:16:24.124Z,11.10
2023-04-18T03:17:23.893Z,11.69
2023-04-18T03:18:23.923Z,12.60
2023-04-18T03:19:24.004Z,11.80
2023-04-18T03:20:24.208Z,11
2023-04-18T03:21:23.574Z,11.30
2023-04-18T03:22:23.472Z,11.39
2023-04-18T03:23:23.526Z,11
2023-04-18T03:24:23.373Z,12.30
2023-04-18T03:25:23.684Z,10.60
2023-04-18T03:26:23.662Z,12.30
2023-04-18T03:27:23.304Z,11.89
2023-04-18T03:28:23.256Z,11.30
2023-04-18T03:29:23.034Z,12.10
2023-04-18T03:30:24.476Z,10.89
2023-04-18T03:31:23.692Z,11.39
2023-04-18T03:32:23.882Z,12.19
2023-04-18T03:33:23.852Z,11.89
2023-04-18T03:35:23.659Z,11.80
2023-04-18T03:36:24.095Z,12.19
2023-04-18T03:37:23.314Z,12.39
2023-04-18T03:38:23.127Z,12.30
2023-04-18T03:40:24.407Z,11.60
2023-04-18T03:41:23.882Z,11.80
2023-04-18T03:42:24.197Z,12.30
2023-04-18T03:43:23.366Z,12.10
2023-04-18T03:44:23.421Z,12.80
2023-04-18T03:45:24.063Z,12.60
2023-04-18T03:46:24.110Z,12.69
2023-04-18T03:47:23.466Z,11.89
2023-04-18T03:48:23.834Z,11.5
2023-04-18T03:49:23.277Z,12
2023-04-18T03:50:23.875Z,10.89
2023-04-18T03:51:23.214Z,11.60
2023-04-18T03:52:23.377Z,11.69
2023-04-18T03:53:23.438Z,12.39
2023-04-18T03:54:23.419Z,12.30
2023-04-18T03:55:23.199Z,13
2023-04-18T03:56:23.810Z,11.60
2023-04-18T03:57:23.177Z,13.30
2023-04-18T03:58:23.425Z,14.39
2023-04-18T03:59:23.427Z,10.89
2023-04-18T04:00:25.066Z,11.89
2023-04-18T04:01:23.345Z,11.60
2023-04-18T04:02:23.923Z,12.39
2023-04-18T04:03:23.500Z,11.89
2023-04-18T04:04:24.420Z,11.60
2023-04-18T04:05:24.673Z,12.5
2023-04-18T04:06:23.828Z,13
2023-04-18T04:07:23.849Z,12.10
2023-04-18T04:08:23.464Z,11.80
2023-04-18T04:09:23.730Z,13.39
2023-04-18T04:10:23.691Z,11.10
2023-04-18T04:11:24.012Z,12
2023-04-18T04:12:23.913Z,10.89
2023-04-18T04:13:23.876Z,11.5
2023-04-18T04:14:23.753Z,11.19
2023-04-18T04:15:24.069Z,11
2023-04-18T04:16:23.594Z,11.80
2023-04-18T04:17:23.849Z,12.10
2023-04-18T04:18:23.752Z,12.30
2023-04-18T04:19:23.763Z,12.60
2023-04-18T04:20:29.083Z,11.10
2023-04-18T04:21:23.695Z,12.5
2023-04-18T04:22:23.611Z,12.19
2023-04-18T04:23:23.653Z,11.69
2023-04-18T04:24:23.834Z,13.19
2023-04-18T04:25:24.318Z,11.60
2023-04-18T04:26:23.750Z,12.10
2023-04-18T04:27:24.336Z,12
2023-04-18T04:28:23.923Z,12.5
2023-04-18T04:29:24.496Z,12.19
2023-04-18T04:30:24.483Z,13.10
2023-04-18T04:31:24.145Z,11.5
2023-04-18T04:32:32.137Z,12.30
2023-04-18T04:33:23.599Z,11.80
2023-04-18T04:34:24.140Z,10.80
2023-04-18T04:35:23.438Z,12
2023-04-18T04:36:24.380Z,12.10
2023-04-18T04:37:23.730Z,11.60
2023-04-18T04:38:24.310Z,11.39
2023-04-18T04:39:23.640Z,11.5
2023-04-18T04:40:24.079Z,11.10
2023-04-18T04:41:23.562Z,14
2023-04-18T04:42:23.898Z,12
2023-04-18T04:43:23.873Z,11
2023-04-18T04:44:23.689Z,10.80
2023-04-18T04:45:24.776Z,11.89
2023-04-18T04:46:24.101Z,13
2023-04-18T04:47:23.671Z,10.60
2023-04-18T04:48:23.893Z,11.69
2023-04-18T04:49:23.966Z,12.5
2023-04-18T04:50:38.801Z,11.80
2023-04-18T04:51:24.175Z,11.10
2023-04-18T04:52:23.882Z,11.30
2023-04-18T04:55:23.734Z,12.19
2023-04-18T04:56:23.809Z,12.60
2023-04-18T04:57:23.385Z,11.69
2023-04-18T04:58:24.525Z,11.80
2023-04-18T04:59:24.607Z,12.5
2023-04-18T05:00:24.353Z,13
2023-04-18T05:01:24.011Z,13.69
2023-04-18T05:02:23.669Z,11.89
2023-04-18T05:03:24.083Z,12.89
2023-04-18T05:04:24.035Z,11.39
2023-04-18T05:05:23.878Z,11.60
2023-04-18T05:06:24.345Z,12
2023-04-18T05:07:23.518Z,12.30
2023-04-18T05:08:23.834Z,11.5
2023-04-18T05:09:23.775Z,11.10
2023-04-18T05:10:24.278Z,12.60
2023-04-18T05:11:23.636Z,13.10
2023-04-18T05:12:23.657Z,11.60
2023-04-18T05:13:24.120Z,11.69
2023-04-18T05:14:23.411Z,13.10
2023-04-18T05:15:24.793Z,10.89
2023-04-18T05:16:23.912Z,11.5
2023-04-18T05:17:23.736Z,11.80
2023-04-18T05:18:23.694Z,11.39
2023-04-18T05:19:24.030Z,12.39
2023-04-18T05:20:24.287Z,13.19
2023-04-18T05:21:23.815Z,12.39
2023-04-18T05:22:24.097Z,11.80
2023-04-18T05:23:24.168Z,12.19
2023-04-18T05:24:23.712Z,12.69
2023-04-18T05:26:24.383Z,12.19
2023-04-18T05:27:24.169Z,12
2023-04-18T05:28:24.104Z,12.30
2023-04-18T05:29:23.599Z,13.60
2023-04-18T05:30:24.561Z,10.69
2023-04-18T05:31:24.411Z,11.5
2023-04-18T05:32:24.201Z,12.19
2023-04-18T05:34:24.386Z,11.39
2023-04-18T05:35:24.777Z,13
2023-04-18T05:36:23.599Z,12.10
2023-04-18T05:37:24.113Z,12.39
2023-04-18T05:38:23.585Z,11.60
2023-04-18T05:40:23.767Z,11.80
2023-04-18T05:41:24.165Z,12.39
2023-04-18T05:43:23.484Z,13
2023-04-18T05:44:24.363Z,12.69
2023-04-18T05:45:24.084Z,12.80
2023-04-18T05:46:23.674Z,12.89
2023-04-18T05:47:24.470Z,12.10
2023-04-18T05:48:24.216Z,10.69
2023-04-18T05:49:23.976Z,11.69
2023-04-18T05:50:23.738Z,11.80
2023-04-18T05:51:24.204Z,12
2023-04-18T05:52:24.054Z,11.80
2023-04-18T05:53:23.645Z,11.39
2023-04-18T05:54:24.098Z,12.30
2023-04-18T05:55:24.131Z,12.10
2023-04-18T05:56:23.848Z,11.30
2023-04-18T05:57:24.104Z,12.39
2023-04-18T05:59:23.702Z,11.5
2023-04-18T06:01:23.999Z,13.10
2023-04-18T06:02:23.803Z,11.69
2023-04-18T06:03:24.108Z,13.10
2023-04-18T06:04:24.314Z,14.60
2023-04-18T06:05:24.396Z,13.5
2023-04-18T06:06:23.706Z,13.39
2023-04-18T06:07:24.618Z,12.5
2023-04-18T06:08:24.316Z,15.19
2023-04-18T06:09:23.974Z,14
2023-04-18T06:10:23.909Z,12.30
2023-04-18T06:11:24.266Z,14.10
2023-04-18T06:12:24.346Z,13.30
2023-04-18T06:13:23.956Z,13.19
2023-04-18T06:14:23.855Z,12.69
2023-04-18T06:15:24.962Z,12.5
2023-04-18T06:16:24.052Z,12.69
2023-04-18T06:17:23.582Z,13.10
2023-04-18T06:18:24.164Z,14
2023-04-18T06:19:23.670Z,12.30
2023-04-18T06:20:24.528Z,14.39
2023-04-18T06:21:24.112Z,13
2023-04-18T06:22:23.915Z,13.60
2023-04-18T06:23:24.277Z,12.5
2023-04-18T06:24:23.958Z,15.10
2023-04-18T06:25:23.830Z,12.39
2023-04-18T06:26:23.789Z,11.60
2023-04-18T06:27:30.663Z,13.10
2023-04-18T06:28:23.742Z,13.69
2023-04-18T06:29:23.945Z,12.80
2023-04-18T06:30:24.792Z,14.89
2023-04-18T06:31:24.023Z,14.10
2023-04-18T06:32:23.827Z,13.60
2023-04-18T06:33:23.745Z,13.80
2023-04-18T06:34:24.175Z,14.80
2023-04-18T06:35:26.541Z,14
2023-04-18T06:36:24.480Z,15.69
2023-04-18T06:37:24.033Z,16.20
2023-04-18T06:38:23.701Z,14.60
2023-04-18T06:39:23.605Z,16
2023-04-18T06:40:24.440Z,14.19
2023-04-18T06:41:24.025Z,14
2023-04-18T06:42:23.344Z,14.5
2023-04-18T06:43:28.824Z,14.80
2023-04-18T06:45:28.658Z,15.5
2023-04-18T06:46:23.956Z,15.39
2023-04-18T06:47:23.680Z,15.69
2023-04-18T06:48:24.619Z,14.80
2023-04-18T06:49:26.357Z,16.20
2023-04-18T06:50:24.198Z,16.39
2023-04-18T06:51:23.520Z,15.10
2023-04-18T06:52:23.998Z,15.19
2023-04-18T06:53:23.329Z,16.20
2023-04-18T06:54:24.194Z,16.79
2023-04-18T06:55:24.055Z,16.39
2023-04-18T06:56:23.815Z,16.10
2023-04-18T06:57:23.799Z,15.69
2023-04-18T06:58:24.026Z,17.79
2023-04-18T06:59:24.015Z,15.60
2023-04-18T07:00:24.610Z,14.80
2023-04-18T07:01:32.726Z,14.30
2023-04-18T07:02:23.473Z,15.60
2023-04-18T07:03:24.529Z,16.79
2023-04-18T07:04:24.828Z,15.19
2023-04-18T07:05:23.937Z,17.10
2023-04-18T07:06:23.650Z,15.5
2023-04-18T07:07:23.958Z,15.80
2023-04-18T07:08:24.622Z,15.60
2023-04-18T07:09:24.162Z,16.5
2023-04-18T07:10:24.475Z,16.10
2023-04-18T07:11:24.204Z,15.39
2023-04-18T07:12:23.848Z,15.30
2023-04-18T07:13:24.283Z,16.39
2023-04-18T07:14:23.738Z,14.89
2023-04-18T07:15:24.313Z,17.39
2023-04-18T07:16:23.988Z,16.79
2023-04-18T07:17:23.797Z,15.10
2023-04-18T07:18:36.598Z,15.30
2023-04-18T07:19:24.026Z,18.39
2023-04-18T07:20:24.108Z,15.89
2023-04-18T07:21:24.028Z,15.5
2023-04-18T07:22:24.227Z,14.5
2023-04-18T07:23:23.931Z,16.60
2023-04-18T07:24:23.811Z,15.19
2023-04-18T07:25:25.014Z,13.19
2023-04-18T07:26:24.074Z,14.80
2023-04-18T07:27:24.128Z,15
2023-04-18T07:28:23.619Z,17.10
2023-04-18T07:29:23.989Z,17
2023-04-18T07:30:26.678Z,17.10
2023-04-18T07:31:24.403Z,18.20
2023-04-18T07:32:24.051Z,15.69
2023-04-18T07:33:24.052Z,16.29
2023-04-18T07:34:24.139Z,15
2023-04-18T07:35:23.961Z,13.30
2023-04-18T07:36:24.071Z,15.19
2023-04-18T07:37:23.856Z,14.19
2023-04-18T07:38:24.223Z,14.39
2023-04-18T07:39:23.803Z,15.89
2023-04-18T07:40:24.600Z,15.10
2023-04-18T07:41:24.164Z,14.69
2023-04-18T07:42:23.719Z,15
2023-04-18T07:43:23.794Z,14.5
2023-04-18T07:44:24.024Z,14.30
2023-04-18T07:45:24.091Z,15.39
2023-04-18T07:46:24.549Z,14.69
2023-04-18T07:47:24.070Z,14.5
2023-04-18T07:48:24.057Z,15.39
2023-04-18T07:49:24.327Z,14.69
2023-04-18T07:50:23.851Z,17.20
2023-04-18T07:51:23.917Z,14.10
2023-04-18T07:52:24.101Z,14.39
2023-04-18T07:53:23.936Z,12.89
2023-04-18T07:54:24.029Z,14.10
2023-04-18T07:55:24.496Z,14.5
2023-04-18T07:56:23.997Z,17.10
2023-04-18T07:57:23.682Z,16.10
2023-04-18T07:58:23.932Z,15.39
2023-04-18T07:59:24.627Z,14.5
2023-04-18T08:00:25.396Z,13.60
2023-04-18T08:01:24.019Z,16.5
2023-04-18T08:02:23.808Z,15.60
2023-04-18T08:03:23.762Z,15.5
2023-04-18T08:04:23.659Z,12.19
2023-04-18T08:05:24.207Z,12.5
2023-04-18T08:06:23.844Z,15.5
2023-04-18T08:07:23.424Z,15.10
2023-04-18T08:08:24.299Z,13.10
2023-04-18T08:09:23.543Z,16.89
2023-04-18T08:10:24.093Z,13.69
2023-04-18T08:11:23.312Z,15.60
2023-04-18T08:12:23.951Z,14.10
2023-04-18T08:13:23.420Z,13.60
2023-04-18T08:14:23.732Z,14.60
2023-04-18T08:15:23.897Z,13.10
2023-04-18T08:16:23.723Z,10.89
2023-04-18T08:17:23.774Z,14.5
2023-04-18T08:18:23.774Z,11.30
2023-04-18T08:20:23.927Z,12.39
2023-04-18T08:21:23.931Z,13.89
2023-04-18T08:22:24.115Z,13.30
2023-04-18T08:23:23.541Z,14.19
2023-04-18T08:24:23.731Z,11.69
2023-04-18T08:25:24.329Z,11.39
2023-04-18T08:26:23.689Z,13.39
2023-04-18T08:27:24.034Z,13.89
2023-04-18T08:28:23.753Z,14.19
2023-04-18T08:29:23.557Z,13.5
2023-04-18T08:30:24.173Z,11.89
2023-04-18T08:31:24.184Z,13.5
2023-04-18T08:32:23.816Z,13.19
2023-04-18T08:33:24.287Z,13.30
2023-04-18T08:34:23.855Z,12.60
2023-04-18T08:35:23.967Z,11.5
2023-04-18T08:36:23.426Z,12.39
2023-04-18T08:37:23.885Z,11.39
2023-04-18T08:38:23.729Z,12.10
2023-04-18T08:39:25.240Z,11.19
2023-04-18T08:40:24.003Z,11.60
2023-04-18T08:41:24.058Z,12
2023-04-18T08:42:24.160Z,9.699
2023-04-18T08:43:23.725Z,12.5
2023-04-18T08:44:23.773Z,13.10
2023-04-18T08:45:23.780Z,11.39
2023-04-18T08:46:24.206Z,12
2023-04-18T08:47:23.865Z,10.80
2023-04-18T08:48:24.071Z,10.60
2023-04-18T08:49:24.469Z,11.19
2023-04-18T08:50:24.210Z,12
2023-04-18T08:51:23.709Z,12.30
2023-04-18T08:52:23.461Z,10.5
2023-04-18T08:53:23.554Z,10.30
2023-04-18T08:54:25.081Z,11.39
2023-04-18T08:55:24.157Z,10.89
2023-04-18T08:56:23.877Z,10.69
2023-04-18T08:57:24.189Z,12.10
2023-04-18T08:58:23.885Z,12.19
2023-04-18T08:59:24.528Z,11.19
2023-04-18T09:00:24.877Z,11.39
2023-04-18T09:01:23.474Z,11.69
2023-04-18T09:02:23.879Z,11.5
2023-04-18T09:03:23.642Z,12.5
2023-04-18T09:04:24.226Z,9.899
2023-04-18T09:05:24.002Z,9.699
2023-04-18T09:06:25.163Z,11.39
2023-04-18T09:07:24.421Z,11.10
2023-04-18T09:08:23.549Z,10.69
2023-04-18T09:09:23.728Z,12.60
2023-04-18T09:10:24.392Z,11.5
2023-04-18T09:11:23.890Z,11.69
2023-04-18T09:12:28.748Z,11.80
2023-04-18T09:13:24.625Z,11.89
2023-04-18T09:14:23.894Z,11.19
2023-04-18T09:15:24.445Z,10.80
2023-04-18T09:16:23.812Z,11
2023-04-18T09:17:24.394Z,10.30
2023-04-18T09:18:29.277Z,10.60
2023-04-18T09:19:23.523Z,11
2023-04-18T09:20:24.118Z,11.80
2023-04-18T09:21:23.812Z,11.5
2023-04-18T09:22:24.329Z,9.899
2023-04-18T09:23:24.121Z,10.39
2023-04-18T09:24:23.686Z,10.89
2023-04-18T09:25:24.177Z,10.60
2023-04-18T09:26:32.133Z,11.39
2023-04-18T09:28:38.325Z,11
2023-04-18T09:29:23.725Z,9.800
2023-04-18T09:30:38.237Z,10.80
2023-04-18T09:31:23.814Z,11.10
2023-04-18T09:32:24.450Z,10
2023-04-18T09:33:23.933Z,10.89
2023-04-18T09:34:37.818Z,11.30
2023-04-18T09:35:24.451Z,11
2023-04-18T09:36:24.022Z,10.89
2023-04-18T09:37:24.033Z,11.39
2023-04-18T09:38:24.219Z,11.5
2023-04-18T09:39:24.342Z,11.39
2023-04-18T09:40:24.677Z,11.19
2023-04-18T09:41:24.836Z,12.30
2023-04-18T09:42:23.613Z,10.10
2023-04-18T09:43:24.236Z,10.39
2023-04-18T09:44:24.061Z,11.19
2023-04-18T09:45:23.901Z,10
2023-04-18T09:46:24.348Z,11
2023-04-18T09:48:23.870Z,8.800
2023-04-18T09:49:24.501Z,10.60
2023-04-18T09:51:24.323Z,9.600
2023-04-18T09:52:23.960Z,10
2023-04-18T09:54:24.135Z,10.10
2023-04-18T09:55:23.551Z,10.19
2023-04-18T09:56:23.400Z,9.5
2023-04-18T09:57:23.899Z,11.10
2023-04-18T09:58:24.386Z,9.5
2023-04-18T09:59:23.917Z,10.30
2023-04-18T10:00:47.109Z,10.39
2023-04-18T10:01:24.243Z,8.699
2023-04-18T10:02:23.815Z,8.399
2023-04-18T10:03:24.392Z,8.699
2023-04-18T10:04:23.583Z,9
2023-04-18T10:05:24.243Z,9.300
2023-04-18T10:06:23.993Z,8.899
2023-04-18T10:07:23.471Z,9.899
2023-04-18T10:08:23.893Z,9.399
2023-04-18T10:09:23.591Z,9.199
2023-04-18T10:10:24.022Z,8.399
2023-04-18T10:11:23.772Z,9.199
2023-04-18T10:12:23.929Z,9.100
2023-04-18T10:13:23.903Z,8.399
2023-04-18T10:14:23.930Z,9.100
2023-04-18T10:15:24.115Z,8.300
2023-04-18T10:16:23.547Z,9.899
2023-04-18T10:17:24.168Z,9.5
2023-04-18T10:18:24.167Z,10.5
2023-04-18T10:19:23.857Z,10.10
2023-04-18T10:21:23.576Z,8.699
2023-04-18T10:22:23.836Z,10.30
2023-04-18T10:23:27.000Z,8.5
2023-04-18T10:24:23.934Z,9.100
2023-04-18T10:25:24.304Z,7.699
2023-04-18T10:26:23.524Z,11.19
2023-04-18T10:27:24.040Z,8.199
2023-04-18T10:28:23.964Z,9.199
2023-04-18T10:29:23.997Z,8.600
2023-04-18T10:31:24.200Z,9.199
2023-04-18T10:32:23.965Z,8.899
2023-04-18T10:34:24.227Z,9
2023-04-18T10:35:23.980Z,9.5
2023-04-18T10:36:24.045Z,8.300
2023-04-18T10:37:23.603Z,9
2023-04-18T10:38:23.884Z,8.899
2023-04-18T10:39:24.314Z,8.399
2023-04-18T10:40:23.986Z,8.100
2023-04-18T10:41:23.932Z,9.399
2023-04-18T10:42:23.225Z,8.600
2023-04-18T10:43:23.734Z,8.5
2023-04-18T10:44:23.939Z,7.5
2023-04-18T10:45:24.565Z,8.600
2023-04-18T10:46:31.850Z,8.899
2023-04-18T10:48:24.101Z,7.599
2023-04-18T10:49:26.054Z,7.900
2023-04-18T10:50:24.311Z,7.099
2023-04-18T10:51:24.010Z,7.699
2023-04-18T10:52:23.587Z,8.300
2023-04-18T10:53:23.837Z,8.800
2023-04-18T10:54:24.180Z,8
2023-04-18T10:55:23.599Z,8.5
2023-04-18T10:57:23.909Z,8.699
2023-04-18T10:58:24.352Z,9.100
2023-04-18T10:59:23.749Z,8.5
2023-04-18T11:00:25.428Z,9.399
2023-04-18T11:01:24.068Z,10.10
2023-04-18T11:02:23.721Z,9.600
2023-04-18T11:03:24.203Z,9.199
2023-04-18T11:04:23.832Z,10
2023-04-18T11:05:24.377Z,8.399
2023-04-18T11:06:24.010Z,8.800
2023-04-18T11:07:23.698Z,8.699
2023-04-18T11:08:24.078Z,8.399
2023-04-18T11:09:23.409Z,9.399
2023-04-18T11:11:23.781Z,9.600
2023-04-18T11:12:25.235Z,10
2023-04-18T11:13:24.089Z,9.100
2023-04-18T11:14:23.499Z,8.899
2023-04-18T11:15:24.187Z,9.300
2023-04-18T11:16:24.397Z,9.199
2023-04-18T11:17:24.219Z,9.5
2023-04-18T11:18:23.666Z,9.399
2023-04-18T11:19:24.263Z,9.100
2023-04-18T11:20:23.731Z,10.80
2023-04-18T11:21:23.953Z,10.10
2023-04-18T11:22:24.373Z,8.699
2023-04-18T11:23:23.700Z,9.300
2023-04-18T11:25:23.687Z,9.199
2023-04-18T11:26:23.788Z,9.600
2023-04-18T11:28:24.082Z,11.30
2023-04-18T11:29:24.402Z,9.100
2023-04-18T11:30:24.298Z,8.899
2023-04-18T11:31:23.675Z,8.399
2023-04-18T11:32:23.922Z,9.5
2023-04-18T11:33:28.975Z,7.900
2023-04-18T11:34:24.328Z,9.199
2023-04-18T11:35:23.747Z,8.699
2023-04-18T11:36:23.899Z,9.399
2023-04-18T11:37:24.056Z,7.300
2023-04-18T11:38:24.346Z,8.800
2023-04-18T11:39:23.745Z,8.699
2023-04-18T11:40:25.185Z,8.600
2023-04-18T11:41:29.237Z,9.100
2023-04-18T11:42:23.887Z,8.899
2023-04-18T11:43:23.630Z,10.39
2023-04-18T11:44:23.882Z,10.10
2023-04-18T11:45:24.267Z,10.5
2023-04-18T11:46:23.688Z,9.5
2023-04-18T11:47:23.999Z,8.899
2023-04-18T11:48:23.780Z,9.100
2023-04-18T11:49:23.637Z,8.5
2023-04-18T11:50:24.455Z,10
2023-04-18T11:51:23.821Z,10.19
2023-04-18T11:52:23.877Z,8.399
2023-04-18T11:53:24.546Z,9.5
2023-04-18T11:55:24.582Z,9.600
2023-04-18T11:56:23.404Z,10.19
2023-04-18T11:57:38.144Z,9.5
2023-04-18T11:58:24.255Z,8
2023-04-18T11:59:23.514Z,8.899
2023-04-18T12:00:24.853Z,9.5
2023-04-18T12:01:38.174Z,9
2023-04-18T12:02:24.507Z,9.100
2023-04-18T12:03:24.142Z,11.30
2023-04-18T12:04:24.380Z,11.89
2023-04-18T12:05:38.626Z,12.5
2023-04-18T12:06:24.471Z,10.19
2023-04-18T12:07:23.727Z,10.89
2023-04-18T12:08:24.082Z,9.100
2023-04-18T12:09:24.193Z,11.30
2023-04-18T12:10:23.706Z,9.100
2023-04-18T12:11:23.727Z,9.300
2023-04-18T12:12:23.938Z,9.600
2023-04-18T12:13:24.406Z,8.899
2023-04-18T12:14:23.689Z,11.39
2023-04-18T12:15:24.561Z,16.10
2023-04-18T12:16:24.722Z,23.79
2023-04-18T12:17:24.163Z,12.80
2023-04-18T12:18:23.688Z,12.39
2023-04-18T12:19:23.658Z,12
2023-04-18T12:20:24.240Z,11.69
2023-04-18T12:21:23.913Z,10.69
2023-04-18T12:22:23.954Z,10.10
2023-04-18T12:23:24.037Z,10.89
2023-04-18T12:24:24.114Z,8
2023-04-18T12:25:26.907Z,8.300
2023-04-18T12:26:23.642Z,9.100
2023-04-18T12:27:23.851Z,13.30
2023-04-18T12:28:23.695Z,9.800
2023-04-18T12:29:24.030Z,10.69
2023-04-18T12:30:23.946Z,9.399
2023-04-18T12:31:24.198Z,8.5
2023-04-18T12:32:23.978Z,9.100
2023-04-18T12:33:24.147Z,9.300
2023-04-18T12:34:23.831Z,10.10
2023-04-18T12:35:24.224Z,9.100
2023-04-18T12:36:23.457Z,10.10
2023-04-18T12:37:24.445Z,11.80
2023-04-18T12:38:23.782Z,8.699
2023-04-18T12:39:24.029Z,9.699
2023-04-18T12:40:24.504Z,9.5
2023-04-18T12:41:23.475Z,9.399
2023-04-18T12:42:23.931Z,8.899
2023-04-18T12:43:23.969Z,9.399
2023-04-18T12:44:23.491Z,9.899
2023-04-18T12:45:24.205Z,9.300
2023-04-18T12:46:23.404Z,8.399
2023-04-18T12:47:23.789Z,9.300
2023-04-18T12:48:23.810Z,10.89
2023-04-18T12:49:24.007Z,10.10
2023-04-18T12:50:24.108Z,11
2023-04-18T12:51:23.858Z,10.10
2023-04-18T12:52:24.370Z,9.199
2023-04-18T12:53:23.791Z,9.100
2023-04-18T12:54:24.366Z,9
2023-04-18T12:55:23.715Z,9.699
2023-04-18T12:56:23.895Z,9.100
2023-04-18T12:57:23.819Z,8.899
2023-04-18T12:58:24.196Z,10.80
2023-04-18T12:59:23.645Z,11.30
2023-04-18T13:00:24.459Z,8.899
2023-04-18T13:01:24.229Z,9.600
2023-04-18T13:02:24.013Z,8.600
2023-04-18T13:03:24.288Z,9.399
2023-04-18T13:04:23.771Z,9.300
2023-04-18T13:05:24.729Z,9.800
2023-04-18T13:06:24.087Z,9.5
2023-04-18T13:07:24.340Z,10.5
2023-04-18T13:08:24.036Z,7.800
2023-04-18T13:09:24.169Z,8.800
2023-04-18T13:10:24.814Z,9.300
2023-04-18T13:11:23.994Z,8.5
2023-04-18T13:12:23.585Z,8.399
2023-04-18T13:13:24.012Z,8.699
2023-04-18T13:14:23.674Z,8.300
2023-04-18T13:15:24.536Z,9.399
2023-04-18T13:16:23.763Z,8.199
2023-04-18T13:17:23.927Z,9.199
2023-04-18T13:18:23.855Z,8.600
2023-04-18T13:19:24.066Z,8.899
2023-04-18T13:20:23.998Z,8.699
2023-04-18T13:21:23.220Z,8.5
2023-04-18T13:22:24.257Z,8.399
2023-04-18T13:23:23.629Z,7.900
2023-04-18T13:24:23.613Z,8.100
2023-04-18T13:25:24.098Z,7.099
2023-04-18T13:26:24.486Z,6.900
2023-04-18T13:27:54.297Z,6.699
2023-04-18T13:28:30.798Z,7.199
2023-04-18T13:29:24.070Z,8.300
2023-04-18T13:30:24.548Z,7.400
2023-04-18T13:31:23.820Z,8.800
2023-04-18T13:32:24.714Z,8
2023-04-18T13:33:24.354Z,7
2023-04-18T13:34:23.917Z,7.699
2023-04-18T13:35:23.848Z,8.100
2023-04-18T13:36:24.217Z,7.5
2023-04-18T13:37:23.545Z,7.300
2023-04-18T13:38:23.900Z,6.599
2023-04-18T13:39:23.968Z,7.599
2023-04-18T13:40:24.135Z,7.099
2023-04-18T13:41:24.009Z,5.699